Stallion Springs, California
Current Conditions -  °F | °C
As of 2:35 AM on Saturday 22 Nov 2014 (Local Time) from KTSP Reporting Station
Haze Haze  
Wind Chill: 33°   Ceiling: 500
Heat Index: 39°   Visibility: 2.5mi
Dew Point: 39°   Wind: 9mph
Humidity: 100%   Direction: 300°WNW
Pressure: 30.17"   Gusts: NA
Location:  35.1338°N, 118.552°W
Report Text: KTSP 221035Z AUTO 30008KT 2 1/2SM BR OVC005 04/04 A3017 RMK AO2
Loading
Personal Weather Stations






























Interactive Weather Map New forecast layout! Learn more

10-Day Weather Forecast

Advertisements
Track Severe Weather on mobile